Time;durP1;ratioP1;P1;durP2;ratioP2;P2;SDS_P1;SDS_P2;PMS_P1;PMS_P2;Temp;Humidity;BMP_temperature;BMP_pressure;BME280_temperature;BME280_humidity;BME280_pressure;Samples;Min_cycle;Max_cycle;Signal;HPM_P1;HPM_P2
2024/04/12 00:01:08;;;;;;;20.80;14.40;;;;;13.80;102721.00;;;;10443133;27;20267;-82
2024/04/12 00:06:20;;;;;;;17.50;12.70;;;;;13.80;102714.00;;;;10439271;27;20274;-82
2024/04/12 00:11:21;;;;;;;18.83;13.67;;;;;13.80;102702.00;;;;10380800;27;20352;-83
2024/04/12 00:16:25;;;;;;;20.90;12.67;;;;;13.80;102690.00;;;;10437570;27;20272;-83
2024/04/12 00:21:27;;;;;;;24.67;13.73;;;;;13.90;102699.00;;;;10409584;28;20334;-83
2024/04/12 00:26:30;;;;;;;19.00;13.73;;;;;13.90;102689.00;;;;10429407;27;20275;-83
2024/04/12 00:31:42;;;;;;;20.17;13.85;;;;;13.80;102695.00;;;;10419667;28;20267;-83
2024/04/12 00:36:44;;;;;;;22.90;14.73;;;;;13.80;102686.00;;;;10460399;27;20623;-83
2024/04/12 00:41:46;;;;;;;19.05;13.93;;;;;13.80;102688.00;;;;10437737;28;20275;-82
2024/04/12 00:46:51;;;;;;;21.27;13.50;;;;;13.80;102679.00;;;;10448178;27;20286;-84
2024/04/12 00:51:54;;;;;;;21.00;13.57;;;;;13.80;102654.00;;;;10400683;27;20266;-85
2024/04/12 00:56:59;;;;;;;19.30;13.93;;;;;13.80;102663.00;;;;10381259;28;20286;-84
2024/04/12 01:02:08;;;;;;;16.90;13.90;;;;;13.80;102650.00;;;;10434132;28;20378;-84
2024/04/12 01:07:13;;;;;;;23.43;14.03;;;;;13.80;102648.00;;;;10406066;28;20271;-84
2024/04/12 01:12:17;;;;;;;21.23;13.23;;;;;13.80;102645.00;;;;10437221;28;20326;-83
2024/04/12 01:17:18;;;;;;;18.97;12.77;;;;;13.80;102634.00;;;;10407828;27;21370;-85
2024/04/12 01:22:20;;;;;;;17.77;13.43;;;;;13.80;102625.00;;;;10465576;27;20400;-84
2024/04/12 01:27:22;;;;;;;18.42;12.07;;;;;13.80;102626.00;;;;10465700;27;20363;-84
2024/04/12 01:32:24;;;;;;;16.63;11.73;;;;;13.80;102615.00;;;;10435114;27;20301;-85
2024/04/12 01:37:30;;;;;;;17.07;11.43;;;;;13.80;102614.00;;;;10464079;27;20293;-84
2024/04/12 01:42:37;;;;;;;13.65;10.20;;;;;13.80;102617.00;;;;10429226;28;20267;-79
2024/04/12 01:47:39;;;;;;;16.98;10.45;;;;;13.80;102610.00;;;;10405516;28;20279;-78
2024/04/12 01:53:09;;;;;;;13.77;10.13;;;;;13.80;102607.00;;;;10408752;27;20343;-79
2024/04/12 01:58:02;;;;;;;14.80;9.93;;;;;13.80;102609.00;;;;10397730;28;20720;-79
2024/04/12 02:03:03;;;;;;;13.67;9.93;;;;;13.80;102614.00;;;;10417593;28;20356;-78
2024/04/12 02:08:40;;;;;;;15.75;10.00;;;;;13.80;102618.00;;;;10423030;27;20377;-78
2024/04/12 02:13:38;;;;;;;11.80;8.53;;;;;13.80;102620.00;;;;10463918;27;20621;-78
2024/04/12 02:18:41;;;;;;;11.93;8.20;;;;;13.70;102626.00;;;;10403691;28;20275;-80
2024/04/12 02:23:44;;;;;;;13.97;9.27;;;;;13.70;102623.00;;;;10426995;28;20630;-78
2024/04/12 02:28:47;;;;;;;13.27;8.10;;;;;13.60;102622.00;;;;10438916;28;20305;-78
2024/04/12 02:33:48;;;;;;;15.17;9.63;;;;;13.40;102622.00;;;;10448500;27;20259;-79
2024/04/12 02:38:50;;;;;;;15.67;9.37;;;;;13.30;102627.00;;;;10421930;27;20326;-79
2024/04/12 02:43:53;;;;;;;15.97;10.30;;;;;13.30;102624.00;;;;10429769;28;20313;-79
2024/04/12 02:48:54;;;;;;;17.77;10.47;;;;;13.40;102616.00;;;;10431218;28;20270;-79
2024/04/12 02:53:57;;;;;;;15.90;10.43;;;;;13.40;102613.00;;;;10417764;28;20305;-84
2024/04/12 02:58:59;;;;;;;19.57;11.70;;;;;13.50;102607.00;;;;10394553;28;20255;-84
2024/04/12 03:04:01;;;;;;;18.50;10.77;;;;;13.50;102596.00;;;;10432100;27;20367;-84
2024/04/12 03:09:02;;;;;;;18.10;11.93;;;;;13.60;102583.00;;;;10443198;27;20917;-83
2024/04/12 03:14:12;;;;;;;17.17;11.50;;;;;13.60;102584.00;;;;10409843;28;20275;-84
2024/04/12 03:19:14;;;;;;;25.77;13.00;;;;;13.60;102573.00;;;;10379528;27;20356;-84
2024/04/12 03:24:18;;;;;;;17.97;11.13;;;;;13.60;102571.00;;;;10430395;27;21102;-84
2024/04/12 03:29:19;;;;;;;25.57;11.93;;;;;13.60;102569.00;;;;10419968;27;21075;-84
2024/04/12 03:34:24;;;;;;;20.00;12.10;;;;;13.60;102576.00;;;;10456544;28;21019;-83
2024/04/12 03:39:28;;;;;;;20.00;12.50;;;;;13.70;102579.00;;;;10419279;28;20263;-83
2024/04/12 03:44:31;;;;;;;20.60;12.00;;;;;13.60;102569.00;;;;10427652;27;20730;-83
2024/04/12 03:49:38;;;;;;;21.37;11.53;;;;;13.50;102574.00;;;;10427845;27;20368;-83
2024/04/12 03:54:47;;;;;;;17.33;11.97;;;;;13.30;102568.00;;;;10438682;28;20349;-83
2024/04/12 03:59:57;;;;;;;21.23;13.33;;;;;13.20;102570.00;;;;10410952;28;20271;-84
2024/04/12 04:05:13;;;;;;;20.47;14.63;;;;;13.00;102562.00;;;;10453548;27;20262;-83
2024/04/12 04:10:20;;;;;;;20.90;12.67;;;;;12.90;102560.00;;;;10405572;28;20270;-83
2024/04/12 04:15:25;;;;;;;17.60;11.37;;;;;12.80;102558.00;;;;10421578;28;20372;-84
2024/04/12 04:20:27;;;;;;;19.73;11.20;;;;;12.70;102569.00;;;;10421042;27;20263;-83
2024/04/12 04:25:31;;;;;;;18.47;11.07;;;;;12.60;102569.00;;;;10441467;27;20361;-83
2024/04/12 04:30:35;;;;;;;20.93;11.87;;;;;12.60;102576.00;;;;10448452;27;20263;-84
2024/04/12 04:35:36;;;;;;;22.70;12.40;;;;;12.80;102571.00;;;;10382716;28;20260;-83
2024/04/12 04:40:38;;;;;;;19.27;12.53;;;;;12.90;102570.00;;;;10444799;27;20269;-84
2024/04/12 04:45:39;;;;;;;19.97;11.67;;;;;13.10;102567.00;;;;10423663;27;20302;-83
2024/04/12 04:50:43;;;;;;;21.80;12.40;;;;;13.20;102568.00;;;;10438719;27;20314;-84
2024/04/12 04:55:45;;;;;;;17.80;11.37;;;;;13.30;102562.00;;;;10444289;27;21072;-83
2024/04/12 05:00:49;;;;;;;22.27;11.83;;;;;13.40;102565.00;;;;10431941;28;20331;-83
2024/04/12 05:05:51;;;;;;;17.20;11.63;;;;;13.60;102570.00;;;;10429218;28;20643;-83
2024/04/12 05:10:55;;;;;;;18.43;11.87;;;;;13.70;102567.00;;;;10440431;27;20302;-83
2024/04/12 05:15:57;;;;;;;20.30;11.63;;;;;13.90;102572.00;;;;10402382;28;20327;-84
2024/04/12 05:20:59;;;;;;;12.90;10.40;;;;;14.00;102564.00;;;;10440131;27;20393;-83
2024/04/12 05:26:02;;;;;;;21.30;12.33;;;;;14.10;102578.00;;;;10413856;28;20414;-83
2024/04/12 05:31:11;;;;;;;16.83;11.23;;;;;14.30;102559.00;;;;10446233;27;20278;-83
2024/04/12 05:36:14;;;;;;;16.35;11.00;;;;;14.40;102567.00;;;;10400994;28;20271;-83
2024/04/12 05:41:15;;;;;;;17.40;9.98;;;;;14.50;102568.00;;;;10413854;27;20271;-83
2024/04/12 05:46:17;;;;;;;16.63;10.38;;;;;14.60;102561.00;;;;10403147;28;20356;-82
2024/04/12 05:51:18;;;;;;;18.13;10.45;;;;;14.70;102571.00;;;;10438094;28;20266;-83
2024/04/12 05:56:25;;;;;;;15.35;9.52;;;;;14.90;102556.00;;;;10421792;28;20302;-83
2024/04/12 06:01:32;;;;;;;18.13;9.02;;;;;15.00;102551.00;;;;10427940;28;20302;-82
2024/04/12 06:06:34;;;;;;;11.75;8.82;;;;;15.20;102549.00;;;;10409917;27;20260;-83
2024/04/12 06:11:37;;;;;;;13.23;9.20;;;;;15.40;102539.00;;;;10450096;28;20267;-83
2024/04/12 06:16:38;;;;;;;13.93;9.02;;;;;15.60;102549.00;;;;10393826;27;20338;-84
2024/04/12 06:21:46;;;;;;;15.18;8.50;;;;;15.70;102551.00;;;;10425559;27;20722;-77
2024/04/12 06:26:49;;;;;;;14.60;7.78;;;;;15.90;102556.00;;;;10396808;28;23052;-77
2024/04/12 06:31:50;;;;;;;12.63;8.15;;;;;16.00;102558.00;;;;10428249;28;20323;-76
2024/04/12 06:37:05;;;;;;;18.35;8.30;;;;;16.20;102564.00;;;;10436813;27;20435;-78
2024/04/12 06:42:08;;;;;;;12.40;7.32;;;;;16.20;102576.00;;;;10437911;27;21016;-78
2024/04/12 06:47:13;;;;;;;9.15;6.57;;;;;16.20;102576.00;;;;10459387;28;20275;-79
2024/04/12 06:52:20;;;;;;;16.73;7.47;;;;;16.10;102586.00;;;;10418684;28;20298;-81
2024/04/12 06:57:21;;;;;;;14.45;7.18;;;;;16.10;102591.00;;;;10421795;28;21084;-80
2024/04/12 07:02:29;;;;;;;11.27;6.30;;;;;16.20;102585.00;;;;10399781;27;20843;-78
2024/04/12 07:07:32;;;;;;;12.00;6.90;;;;;16.30;102586.00;;;;10419504;28;20306;-79
2024/04/12 07:12:33;;;;;;;14.63;6.90;;;;;16.40;102581.00;;;;10432651;28;20383;-78
2024/04/12 07:17:39;;;;;;;12.65;6.95;;;;;16.40;102590.00;;;;10418776;28;20318;-79
2024/04/12 07:22:40;;;;;;;11.00;6.93;;;;;16.50;102597.00;;;;10413389;28;20297;-79
2024/04/12 07:27:42;;;;;;;13.10;6.50;;;;;16.50;102597.00;;;;10432544;28;20275;-79
2024/04/12 07:32:44;;;;;;;9.82;5.95;;;;;16.60;102603.00;;;;10430859;27;20615;-85
2024/04/12 07:37:45;;;;;;;15.82;6.07;;;;;16.70;102611.00;;;;10437072;27;20368;-84
2024/04/12 07:42:48;;;;;;;12.95;6.65;;;;;16.80;102611.00;;;;10447095;27;21070;-84
2024/04/12 07:47:54;;;;;;;10.40;6.35;;;;;16.90;102603.00;;;;10440218;27;20256;-84
2024/04/12 07:53:43;;;;;;;10.90;5.63;;;;;17.10;102601.00;;;;10434844;27;20338;-85
2024/04/12 07:58:34;;;;;;;13.82;5.90;;;;;17.30;102588.00;;;;10407802;27;20318;-85
2024/04/12 08:03:39;;;;;;;9.20;5.05;;;;;17.40;102591.00;;;;10380789;27;20279;-86
2024/04/12 08:08:44;;;;;;;8.00;4.68;;;;;17.50;102594.00;;;;10423767;28;20271;-84
2024/04/12 08:13:50;;;;;;;9.73;5.70;;;;;17.80;102594.00;;;;10411002;28;20279;-84
2024/04/12 08:18:54;;;;;;;6.57;4.68;;;;;18.30;102601.00;;;;10390396;28;20271;-84
2024/04/12 08:23:56;;;;;;;11.50;5.25;;;;;18.90;102597.00;;;;10431569;27;20406;-85
2024/04/12 08:29:00;;;;;;;8.18;4.72;;;;;19.60;102591.00;;;;10430626;28;20733;-83
2024/04/12 08:34:03;;;;;;;6.70;3.80;;;;;20.60;102594.00;;;;10419479;27;20296;-84
2024/04/12 08:39:25;;;;;;;6.70;3.60;;;;;21.00;102605.00;;;;10448976;27;20254;-85
2024/04/12 08:44:29;;;;;;;6.47;3.60;;;;;22.10;102605.00;;;;10408783;28;20472;-84
2024/04/12 08:49:32;;;;;;;10.30;3.08;;;;;22.70;102615.00;;;;10438740;27;20271;-84
2024/04/12 08:54:33;;;;;;;5.20;2.33;;;;;23.40;102604.00;;;;10395981;28;20364;-84
2024/04/12 08:59:46;;;;;;;10.07;2.80;;;;;23.90;102610.00;;;;10412433;28;20267;-85
2024/04/12 09:04:47;;;;;;;5.07;2.17;;;;;24.40;102602.00;;;;10360265;28;20263;-83
2024/04/12 09:09:55;;;;;;;5.63;2.53;;;;;24.60;102603.00;;;;10417451;27;20299;-84
2024/04/12 09:14:59;;;;;;;3.95;2.00;;;;;24.70;102611.00;;;;10425994;28;20279;-84
2024/04/12 09:20:03;;;;;;;4.72;2.05;;;;;24.30;102616.00;;;;10421315;27;20259;-87
2024/04/12 09:25:14;;;;;;;8.10;2.45;;;;;24.20;102622.00;;;;10416443;27;21322;-84
2024/04/12 09:35:38;;;;;;;3.17;2.30;;;;;24.90;102632.00;;;;10398399;28;20271;-84
2024/04/12 09:40:40;;;;;;;9.55;3.00;;;;;25.10;102628.00;;;;10413601;27;20275;-80
2024/04/12 09:45:57;;;;;;;7.78;3.50;;;;;25.80;102631.00;;;;10429996;28;20267;-83
2024/04/12 10:39:33;;;;;;;6.32;2.95;;;;;27.50;102604.00;;;;10416172;28;20788;-83
2024/04/12 10:44:34;;;;;;;6.47;3.03;;;;;27.20;102618.00;;;;10437743;28;20387;-83
2024/04/12 10:49:36;;;;;;;5.35;2.83;;;;;27.60;102610.00;;;;10425545;27;20619;-84
2024/04/12 10:54:37;;;;;;;8.07;3.25;;;;;28.30;102602.00;;;;10423450;28;20373;-82
2024/04/12 10:59:42;;;;;;;7.75;2.88;;;;;29.20;102604.00;;;;10428892;28;20726;-85
2024/04/12 11:10:05;;;;;;;7.05;3.25;;;;;28.80;102612.00;;;;10413497;28;20271;-83
2024/04/12 11:31:07;;;;;;;7.20;2.70;;;;;27.80;102602.00;;;;10436637;28;20279;-82
2024/04/12 11:31:39;;;;;;;6.38;3.28;;;;;26.30;102592.00;;;;10431905;27;20267;-84
2024/04/12 11:36:43;;;;;;;6.40;2.88;;;;;27.00;102587.00;;;;10428176;27;20385;-85
2024/04/12 11:41:45;;;;;;;7.03;3.55;;;;;26.60;102577.00;;;;10428224;28;20313;-85
2024/04/12 11:46:49;;;;;;;6.07;3.47;;;;;26.40;102568.00;;;;10432234;28;20371;-84
2024/04/12 11:52:02;;;;;;;6.70;3.10;;;;;26.00;102575.00;;;;10422189;27;20270;-85
2024/04/12 11:57:05;;;;;;;6.45;3.40;;;;;25.80;102552.00;;;;10413091;27;20392;-84
2024/04/12 12:02:13;;;;;;;4.07;2.80;;;;;26.30;102554.00;;;;10378808;27;20298;-86
2024/04/12 12:07:16;;;;;;;7.32;3.10;;;;;26.40;102553.00;;;;10401917;27;20294;-87
2024/04/12 12:12:21;;;;;;;8.43;2.90;;;;;26.40;102560.00;;;;10434469;27;20375;-79
2024/04/12 12:17:23;;;;;;;5.55;2.30;;;;;27.80;102550.00;;;;10454067;27;20294;-81
2024/04/12 12:22:25;;;;;;;9.50;3.95;;;;;27.40;102549.00;;;;10416210;28;20290;-79
2024/04/12 12:27:26;;;;;;;5.60;2.97;;;;;27.10;102533.00;;;;10375851;27;20438;-80
2024/04/12 12:32:31;;;;;;;9.05;3.20;;;;;27.30;102532.00;;;;10431402;27;21143;-80
2024/04/12 12:37:34;;;;;;;6.80;3.22;;;;;28.10;102527.00;;;;10427299;27;20291;-80
2024/04/12 12:42:37;;;;;;;5.40;3.08;;;;;28.20;102530.00;;;;10448050;27;20271;-81
2024/04/12 12:47:38;;;;;;;7.78;2.92;;;;;27.70;102537.00;;;;10444602;27;20263;-79
2024/04/12 12:52:40;;;;;;;6.10;3.15;;;;;26.90;102521.00;;;;10431593;28;20305;-79
2024/04/12 12:57:44;;;;;;;6.55;3.35;;;;;26.60;102520.00;;;;10371305;28;20618;-80
2024/04/12 13:02:50;;;;;;;8.55;3.42;;;;;26.30;102518.00;;;;10428425;28;20357;-79
2024/04/12 13:07:51;;;;;;;8.07;3.40;;;;;26.00;102514.00;;;;10430207;27;20297;-79
2024/04/12 13:12:53;;;;;;;5.55;2.63;;;;;25.80;102514.00;;;;10421206;27;20350;-80
2024/04/12 13:17:56;;;;;;;8.13;3.28;;;;;25.60;102511.00;;;;10418551;27;20794;-79
2024/04/12 13:22:57;;;;;;;4.80;2.65;;;;;26.50;102500.00;;;;10429374;28;21320;-82
2024/04/12 13:27:58;;;;;;;5.53;3.00;;;;;26.00;102498.00;;;;10436870;28;20793;-85
2024/04/12 13:33:09;;;;;;;5.95;2.65;;;;;26.60;102486.00;;;;10400818;27;20811;-84
2024/04/12 13:38:12;;;;;;;8.68;2.72;;;;;27.50;102492.00;;;;10436800;27;21471;-85
2024/04/12 13:43:16;;;;;;;6.32;2.60;;;;;26.70;102476.00;;;;10420537;27;20263;-83
2024/04/12 13:53:43;;;;;;;9.30;3.30;;;;;26.80;102476.00;;;;10452963;27;20271;-85
2024/04/12 13:58:56;;;;;;;4.97;2.55;;;;;26.30;102469.00;;;;10421369;27;20651;-85
2024/04/12 14:04:03;;;;;;;5.18;2.42;;;;;26.50;102463.00;;;;10447935;27;20393;-85
2024/04/12 14:09:12;;;;;;;9.98;3.53;;;;;26.60;102465.00;;;;10432036;27;20267;-84
2024/04/12 14:14:14;;;;;;;8.20;2.25;;;;;26.80;102459.00;;;;10450601;27;20282;-84
2024/04/12 14:19:18;;;;;;;6.78;2.90;;;;;26.60;102449.00;;;;10401191;28;20289;-84
2024/04/12 14:29:43;;;;;;;9.20;3.17;;;;;25.90;102447.00;;;;10434863;28;20381;-84
2024/04/12 14:34:49;;;;;;;8.13;3.25;;;;;25.80;102443.00;;;;10446045;28;21158;-86
2024/04/12 14:40:06;;;;;;;5.00;2.38;;;;;25.70;102439.00;;;;10395298;28;21092;-86
2024/04/12 14:45:07;;;;;;;3.00;2.05;;;;;26.00;102431.00;;;;10410906;28;20286;-87
2024/04/12 14:50:10;;;;;;;5.85;2.60;;;;;26.20;102425.00;;;;10418514;28;20267;-87
2024/04/12 14:55:13;;;;;;;4.88;2.13;;;;;26.10;102420.00;;;;10396467;28;20267;-88
2024/04/12 15:00:15;;;;;;;5.50;2.38;;;;;25.80;102417.00;;;;10425028;28;20348;-88
2024/04/12 15:47:59;;;;;;;5.22;2.00;;;;;24.20;102393.00;;;;10424070;27;20270;-81
2024/04/12 16:14:50;;;;;;;5.75;2.50;;;;;23.40;102371.00;;;;10425789;27;20268;-80
2024/04/12 16:19:54;;;;;;;6.57;2.45;;;;;23.40;102381.00;;;;10421123;28;20319;-80
2024/04/12 16:24:56;;;;;;;4.57;2.50;;;;;23.30;102374.00;;;;10395512;28;20264;-80
2024/04/12 16:29:59;;;;;;;6.22;2.80;;;;;23.20;102368.00;;;;10431531;27;20367;-79
2024/04/12 16:35:01;;;;;;;6.78;2.63;;;;;23.20;102362.00;;;;10433552;28;20271;-79
2024/04/12 16:40:03;;;;;;;4.70;2.72;;;;;23.20;102362.00;;;;10417086;27;20269;-80
2024/04/12 16:45:05;;;;;;;8.05;3.10;;;;;23.10;102365.00;;;;10416983;27;20735;-79
2024/04/12 16:50:07;;;;;;;9.93;3.38;;;;;23.00;102355.00;;;;10376352;27;20275;-80
2024/04/12 16:55:08;;;;;;;5.13;2.42;;;;;22.80;102352.00;;;;10456634;27;20302;-85
2024/04/12 17:00:11;;;;;;;4.18;2.33;;;;;22.60;102351.00;;;;10403871;28;20267;-84
2024/04/12 17:05:14;;;;;;;5.95;2.70;;;;;22.30;102361.00;;;;10419352;27;20351;-85
2024/04/12 17:10:15;;;;;;;5.32;2.95;;;;;22.10;102353.00;;;;10411286;27;20997;-84
2024/04/12 17:15:21;;;;;;;6.38;2.80;;;;;22.00;102360.00;;;;10456944;28;22689;-83
2024/04/12 17:20:23;;;;;;;5.20;2.47;;;;;21.70;102363.00;;;;10439143;27;20294;-83
2024/04/12 17:25:24;;;;;;;11.77;2.90;;;;;21.40;102357.00;;;;10383149;28;20271;-85
2024/04/12 17:30:25;;;;;;;5.53;2.72;;;;;21.20;102359.00;;;;10422219;28;20308;-84
2024/04/12 17:35:27;;;;;;;6.90;2.40;;;;;21.00;102352.00;;;;10430717;27;20878;-83
2024/04/12 17:40:29;;;;;;;5.07;2.60;;;;;20.80;102348.00;;;;10431011;27;20654;-83
2024/04/12 17:45:30;;;;;;;8.88;3.00;;;;;20.60;102347.00;;;;10431451;27;20271;-84
2024/04/12 17:50:32;;;;;;;6.40;3.03;;;;;20.40;102343.00;;;;10425535;27;20910;-83
2024/04/12 17:55:34;;;;;;;6.68;2.80;;;;;20.20;102341.00;;;;10424584;27;20317;-85
2024/04/12 18:00:36;;;;;;;5.25;2.80;;;;;20.00;102338.00;;;;10419984;28;20748;-82
2024/04/12 18:05:37;;;;;;;9.07;3.05;;;;;19.80;102338.00;;;;10428717;28;20275;-80
2024/04/12 18:10:39;;;;;;;6.47;3.10;;;;;19.70;102339.00;;;;10422076;28;20426;-80
2024/04/12 18:15:40;;;;;;;7.07;3.15;;;;;19.50;102334.00;;;;10454680;27;20293;-80
2024/04/12 18:20:42;;;;;;;7.70;3.33;;;;;19.40;102337.00;;;;10434435;27;20275;-80
2024/04/12 18:25:43;;;;;;;6.07;2.85;;;;;19.20;102344.00;;;;10459249;27;20307;-80
2024/04/12 18:30:47;;;;;;;9.32;3.30;;;;;19.00;102353.00;;;;10392918;28;20393;-80
2024/04/12 18:35:52;;;;;;;5.75;3.50;;;;;18.90;102346.00;;;;10418476;28;20274;-80
2024/04/12 18:46:16;;;;;;;5.38;2.80;;;;;18.60;102332.00;;;;10420658;28;20259;-81
2024/04/12 18:51:18;;;;;;;6.85;3.22;;;;;18.40;102329.00;;;;10426178;28;20294;-80
2024/04/12 18:56:19;;;;;;;6.40;2.97;;;;;18.20;102338.00;;;;10433444;28;20401;-80
2024/04/12 19:01:22;;;;;;;7.20;3.08;;;;;18.10;102342.00;;;;10413070;28;20330;-80
2024/04/12 19:06:23;;;;;;;8.35;2.70;;;;;17.90;102337.00;;;;10433685;28;20286;-80
2024/04/12 19:11:25;;;;;;;6.03;2.80;;;;;17.80;102342.00;;;;10429636;27;20758;-80
2024/04/12 19:16:27;;;;;;;4.35;2.60;;;;;17.70;102346.00;;;;10424771;28;20267;-80
2024/04/12 19:21:28;;;;;;;7.57;3.10;;;;;17.60;102344.00;;;;10426171;27;20283;-81
2024/04/12 19:26:30;;;;;;;6.60;2.65;;;;;17.50;102341.00;;;;10432969;27;20311;-79
2024/04/12 19:31:32;;;;;;;7.43;2.90;;;;;17.40;102348.00;;;;10410022;27;20279;-80
2024/04/12 19:36:38;;;;;;;4.55;3.00;;;;;17.30;102344.00;;;;10421947;27;21109;-79
2024/04/12 19:41:40;;;;;;;6.10;3.10;;;;;17.20;102344.00;;;;10424096;28;20772;-80
2024/04/12 19:46:41;;;;;;;6.72;3.25;;;;;17.10;102345.00;;;;10440977;27;20278;-80
2024/04/12 19:51:44;;;;;;;9.60;4.30;;;;;17.00;102341.00;;;;10446535;28;20255;-80
2024/04/12 19:56:46;;;;;;;8.55;4.13;;;;;16.80;102350.00;;;;10430928;27;20279;-80
2024/04/12 20:01:47;;;;;;;8.13;3.83;;;;;16.80;102340.00;;;;10433425;27;20256;-80
2024/04/12 20:06:51;;;;;;;8.13;3.30;;;;;16.80;102332.00;;;;10434265;27;20293;-80
2024/04/12 20:11:53;;;;;;;7.85;4.25;;;;;16.70;102330.00;;;;10434321;28;21240;-81
2024/04/12 20:16:55;;;;;;;9.32;4.05;;;;;16.60;102328.00;;;;10443774;27;21279;-82
2024/04/12 20:21:57;;;;;;;6.80;4.20;;;;;16.50;102318.00;;;;10453600;27;20271;-81
2024/04/12 20:26:58;;;;;;;7.05;3.97;;;;;16.50;102316.00;;;;10429134;28;20283;-80
2024/04/12 20:32:22;;;;;;;7.53;4.20;;;;;16.50;102311.00;;;;10434378;27;20254;-81
2024/04/12 20:37:24;;;;;;;9.93;4.78;;;;;16.30;102313.00;;;;10442166;27;20275;-81
2024/04/12 20:42:25;;;;;;;11.68;5.22;;;;;16.20;102309.00;;;;10433104;27;20291;-81
2024/04/12 20:47:27;;;;;;;6.90;4.93;;;;;16.10;102319.00;;;;10454146;28;20318;-81
2024/04/12 20:52:29;;;;;;;7.68;4.95;;;;;16.20;102321.00;;;;10469338;27;21313;-80
2024/04/12 20:57:31;;;;;;;11.50;5.18;;;;;16.20;102316.00;;;;10437632;27;20330;-81
2024/04/12 21:02:34;;;;;;;10.10;5.30;;;;;16.10;102314.00;;;;10413878;28;20272;-81
2024/04/12 21:07:38;;;;;;;11.70;5.28;;;;;16.10;102314.00;;;;10433264;27;20836;-81
2024/04/12 21:12:40;;;;;;;9.55;5.75;;;;;16.10;102319.00;;;;10373117;27;20302;-81
2024/04/12 21:17:47;;;;;;;9.73;5.40;;;;;16.10;102323.00;;;;10427985;28;20329;-80
2024/04/12 21:22:48;;;;;;;10.55;5.15;;;;;16.00;102325.00;;;;10392885;28;20257;-81
2024/04/12 21:27:49;;;;;;;7.35;4.68;;;;;15.90;102317.00;;;;10427549;28;20387;-79
2024/04/12 21:32:54;;;;;;;8.00;5.05;;;;;15.80;102319.00;;;;10419453;28;20652;-88
2024/04/12 21:37:57;;;;;;;11.40;5.57;;;;;15.70;102324.00;;;;10436475;28;20609;-87
2024/04/12 21:42:58;;;;;;;8.27;4.78;;;;;15.60;102324.00;;;;10459860;27;20375;-88
2024/04/12 21:47:59;;;;;;;8.82;5.28;;;;;15.50;102315.00;;;;10435347;28;20358;-89
2024/04/12 21:53:03;;;;;;;8.52;4.70;;;;;15.40;102317.00;;;;10442948;27;20290;-88
2024/04/12 21:58:04;;;;;;;12.32;5.55;;;;;15.20;102290.00;;;;10448700;27;20279;-88
2024/04/12 22:03:06;;;;;;;12.63;5.40;;;;;15.20;102299.00;;;;10419601;28;20293;-90
2024/04/12 22:08:08;;;;;;;11.32;5.05;;;;;15.20;102291.00;;;;10450385;27;20718;-88
2024/04/12 22:13:09;;;;;;;9.85;5.05;;;;;15.20;102293.00;;;;10439319;27;20381;-89
2024/04/12 22:18:10;;;;;;;7.78;5.63;;;;;15.10;102294.00;;;;10416424;27;20345;-89
2024/04/12 22:23:12;;;;;;;9.75;5.63;;;;;15.10;102294.00;;;;10471122;28;20259;-88
2024/04/12 22:28:13;;;;;;;7.45;5.25;;;;;15.10;102297.00;;;;10453537;28;20389;-89
2024/04/12 22:33:18;;;;;;;9.75;5.22;;;;;15.10;102293.00;;;;10441042;28;20369;-89
2024/04/12 22:38:20;;;;;;;9.02;5.10;;;;;15.00;102296.00;;;;10418797;27;20283;-89
2024/04/12 22:43:21;;;;;;;11.00;5.40;;;;;15.00;102286.00;;;;10411021;27;20271;-79
2024/04/12 22:48:23;;;;;;;10.73;5.50;;;;;15.00;102281.00;;;;10450961;28;20259;-81
2024/04/12 22:53:25;;;;;;;10.45;6.00;;;;;15.00;102270.00;;;;10443904;28;20283;-80
2024/04/12 22:58:26;;;;;;;10.02;5.32;;;;;15.00;102277.00;;;;10418452;27;20263;-82
2024/04/12 23:03:28;;;;;;;9.25;4.88;;;;;14.90;102276.00;;;;10422949;28;20364;-80
2024/04/12 23:08:30;;;;;;;9.15;5.15;;;;;14.90;102267.00;;;;10411117;27;20258;-82
2024/04/12 23:13:31;;;;;;;11.25;5.97;;;;;14.90;102266.00;;;;10435807;27;20306;-80
2024/04/12 23:18:32;;;;;;;10.07;5.35;;;;;14.90;102257.00;;;;10431715;27;20351;-78
2024/04/12 23:23:34;;;;;;;15.82;5.60;;;;;14.80;102252.00;;;;10450346;27;20267;-80
2024/04/12 23:28:36;;;;;;;10.73;5.65;;;;;14.80;102256.00;;;;10438856;27;20271;-80
2024/04/12 23:33:37;;;;;;;11.68;5.82;;;;;14.70;102246.00;;;;10434466;27;20263;-81
2024/04/12 23:38:39;;;;;;;11.60;5.00;;;;;14.70;102243.00;;;;10444820;27;20356;-80
2024/04/12 23:43:40;;;;;;;14.23;5.93;;;;;14.70;102233.00;;;;10432056;28;20352;-80
2024/04/12 23:48:41;;;;;;;9.85;5.32;;;;;14.70;102242.00;;;;10443217;27;20369;-81
2024/04/12 23:53:43;;;;;;;9.85;5.82;;;;;14.70;102249.00;;;;10428734;28;20315;-85
2024/04/12 23:58:44;;;;;;;12.38;6.70;;;;;14.70;102246.00;;;;10416917;27;20323;-84
